地図

経路データ

SID SEASON NUMBER BASIN SUBBASIN NAME ISO_TIME NATURE LAT LON WMO_WIND WMO_PRES WMO_AGENCY TRACK_TYPE DIST2LAND LANDFALL IFLAG USA_AGENCY USA_ATCF_ID USA_LAT USA_LON USA_RECORD USA_STATUS USA_WIND USA_PRES USA_SSHS USA_R34_NE USA_R34_SE USA_R34_SW USA_R34_NW USA_R50_NE USA_R50_SE USA_R50_SW USA_R50_NW USA_R64_NE USA_R64_SE USA_R64_SW USA_R64_NW USA_POCI USA_ROCI USA_RMW USA_EYE TOKYO_LAT TOKYO_LON TOKYO_GRADE TOKYO_WIND TOKYO_PRES TOKYO_R50_DIR TOKYO_R50_LONG TOKYO_R50_SHORT TOKYO_R30_DIR TOKYO_R30_LONG TOKYO_R30_SHORT TOKYO_LAND CMA_LAT CMA_LON CMA_CAT CMA_WIND CMA_PRES HKO_LAT HKO_LON HKO_CAT HKO_WIND HKO_PRES NEWDELHI_LAT NEWDELHI_LON NEWDELHI_GRADE NEWDELHI_WIND NEWDELHI_PRES NEWDELHI_CI NEWDELHI_DP NEWDELHI_POCI REUNION_LAT REUNION_LON REUNION_TYPE REUNION_WIND REUNION_PRES REUNION_TNUM REUNION_CI REUNION_RMW REUNION_R34_NE REUNION_R34_SE REUNION_R34_SW REUNION_R34_NW REUNION_R50_NE REUNION_R50_SE REUNION_R50_SW REUNION_R50_NW REUNION_R64_NE REUNION_R64_SE REUNION_R64_SW REUNION_R64_NW BOM_LAT BOM_LON BOM_TYPE BOM_WIND BOM_PRES BOM_TNUM BOM_CI BOM_RMW BOM_R34_NE BOM_R34_SE BOM_R34_SW BOM_R34_NW BOM_R50_NE BOM_R50_SE BOM_R50_SW BOM_R50_NW BOM_R64_NE BOM_R64_SE BOM_R64_SW BOM_R64_NW BOM_ROCI BOM_POCI BOM_EYE BOM_POS_METHOD BOM_PRES_METHOD NADI_LAT NADI_LON NADI_CAT NADI_WIND NADI_PRES WELLINGTON_LAT WELLINGTON_LON WELLINGTON_WIND WELLINGTON_PRES DS824_LAT DS824_LON DS824_STAGE DS824_WIND DS824_PRES TD9636_LAT TD9636_LON TD9636_STAGE TD9636_WIND TD9636_PRES TD9635_LAT TD9635_LON TD9635_WIND TD9635_PRES TD9635_ROCI NEUMANN_LAT NEUMANN_LON NEUMANN_CLASS NEUMANN_WIND NEUMANN_PRES MLC_LAT MLC_LON MLC_CLASS MLC_WIND MLC_PRES USA_GUST BOM_GUST BOM_GUST_PER REUNION_GUST REUNION_GUST_PER USA_SEAHGT USA_SEARAD_NE USA_SEARAD_SE USA_SEARAD_SW USA_SEARAD_NW STORM_SPEED STORM_DIR
1937269N23281 1937 50 NA NA NOT_NAMED 1937-09-26 06:00:00 TS 23.2000 -79.4000 30 hurdat_atl main 59 59 O_____________ hurdat_atl AL091937 23.2000 -79.4000 TD 30 -1 5 21
1937269N23281 1937 50 NA NA NOT_NAMED 1937-09-26 09:00:00 TS 23.4550 -79.2927 main 94 94 P_____________ AL091937 23.4550 -79.2927 TD 30 -1 5 20
1937269N23281 1937 50 NA NA NOT_NAMED 1937-09-26 12:00:00 TS 23.7000 -79.2000 30 hurdat_atl main 119 99 O_____________ hurdat_atl AL091937 23.7000 -79.2000 TD 30 -1 5 18
1937269N23281 1937 50 NA NA NOT_NAMED 1937-09-26 15:00:00 TS 23.9474 -79.1221 main 99 60 P_____________ AL091937 23.9474 -79.1221 TD 30 -1 6 17
1937269N23281 1937 50 NA NA NOT_NAMED 1937-09-26 18:00:00 TS 24.3000 -79.0000 30 hurdat_atl main 60 32 O_____________ hurdat_atl AL091937 24.3000 -79.0000 TD 30 -1 9 19
1937269N23281 1937 50 NA NA NOT_NAMED 1937-09-26 21:00:00 TS 24.8175 -78.7872 main 37 37 P_____________ AL091937 24.8175 -78.7872 TD 30 -1 13 21
1937269N23281 1937 50 NA NA NOT_NAMED 1937-09-27 00:00:00 TS 25.5000 -78.5000 30 hurdat_atl main 60 60 O_____________ hurdat_atl AL091937 25.5000 -78.5000 TD 30 -1 16 21
1937269N23281 1937 50 NA NA NOT_NAMED 1937-09-27 03:00:00 TS 26.3051 -78.1577 main 134 134 P_____________ AL091937 26.3051 -78.1577 TD 30 -1 18 20
1937269N23281 1937 50 NA NA NOT_NAMED 1937-09-27 06:00:00 TS 27.2000 -77.8000 30 hurdat_atl main 222 222 O_____________ hurdat_atl AL091937 27.2000 -77.8000 TD 30 -1 19 18
1937269N23281 1937 50 NA NA NOT_NAMED 1937-09-27 09:00:00 TS 28.0999 -77.4846 main 283 283 P_____________ AL091937 28.0999 -77.4846 TD 30 -1 19 16
1937269N23281 1937 50 NA NA NOT_NAMED 1937-09-27 12:00:00 TS 29.0000 -77.2000 30 hurdat_atl main 326 326 O_____________ hurdat_atl AL091937 29.0000 -77.2000 TD 30 -1 18 15
1937269N23281 1937 50 NA NA NOT_NAMED 1937-09-27 15:00:00 TS 29.8574 -76.9418 main 382 361 P_____________ AL091937 29.8574 -76.9418 TD 32 -1 18 14
1937269N23281 1937 50 NA NA NOT_NAMED 1937-09-27 18:00:00 TS 30.7000 -76.7000 35 hurdat_atl main 361 302 O_____________ hurdat_atl AL091937 30.7000 -76.7000 TS 35 0 18 12
1937269N23281 1937 50 NA NA NOT_NAMED 1937-09-27 21:00:00 TS 31.5795 -76.5011 main 292 236 P_____________ AL091937 31.5795 -76.5011 TS 35 0 18 14
1937269N23281 1937 50 NA NA NOT_NAMED 1937-09-28 00:00:00 TS 32.4000 -76.2000 35 hurdat_atl main 236 200 O_____________ hurdat_atl AL091937 32.4000 -76.2000 TS 35 0 16 25
1937269N23281 1937 50 NA NA NOT_NAMED 1937-09-28 03:00:00 TS 33.0495 -75.6955 main 203 173 P_____________ AL091937 33.0495 -75.6955 TS 37 0 16 38
1937269N23281 1937 50 NA NA NOT_NAMED 1937-09-28 06:00:00 TS 33.7000 -75.0000 40 hurdat_atl main 177 176 O_____________ hurdat_atl AL091937 33.7000 -75.0000 TS 40 0 20 41
1937269N23281 1937 50 NA NA NOT_NAMED 1937-09-28 09:00:00 TS 34.5201 -74.1524 main 183 182 P_____________ AL091937 34.5201 -74.1524 TS 40 0 23 41
1937269N23281 1937 50 NA NA NOT_NAMED 1937-09-28 12:00:00 ET 35.4000 -73.2000 40 hurdat_atl main 212 212 O_____________ hurdat_atl AL091937 35.4000 -73.2000 EX 40 -4 23 42
1937269N23281 1937 50 NA NA NOT_NAMED 1937-09-28 15:00:00 ET 36.2343 -72.2623 main 290 290 P_____________ AL091937 36.2343 -72.2623 EX 42 -4 23 42
1937269N23281 1937 50 NA NA NOT_NAMED 1937-09-28 18:00:00 ET 37.1000 -71.3000 45 hurdat_atl main 359 359 O_____________ hurdat_atl AL091937 37.1000 -71.3000 EX 45 -4 24 40
1937269N23281 1937 50 NA NA NOT_NAMED 1937-09-28 21:00:00 ET 38.0791 -70.3150 main 359 299 P_____________ AL091937 38.0791 -70.3150 EX 45 -4 25 40
1937269N23281 1937 50 NA NA NOT_NAMED 1937-09-29 00:00:00 ET 39.0000 -69.3000 45 hurdat_atl main 302 264 O_____________ hurdat_atl AL091937 39.0000 -69.3000 EX 45 -4 23 44
1937269N23281 1937 50 NA NA NOT_NAMED 1937-09-29 03:00:00 ET 39.7165 -68.2622 main 264 258 P_____________ AL091937 39.7165 -68.2622 EX 42 -4 21 51
1937269N23281 1937 50 NA NA NOT_NAMED 1937-09-29 06:00:00 ET 40.3000 -67.2000 40 hurdat_atl main 281 281 O_____________ hurdat_atl AL091937 40.3000 -67.2000 EX 40 -4 20 56
1937269N23281 1937 50 NA NA NOT_NAMED 1937-09-29 09:00:00 ET 40.8210 -66.1269 main 302 245 P_____________ AL091937 40.8210 -66.1269 EX 40 -4 19 59
1937269N23281 1937 50 NA NA NOT_NAMED 1937-09-29 12:00:00 ET 41.3000 -65.0000 40 hurdat_atl main 245 220 O_____________ hurdat_atl AL091937 41.3000 -65.0000 EX 40 -4 20 61
1937269N23281 1937 50 NA NA NOT_NAMED 1937-09-29 15:00:00 ET 41.7831 -63.8065 main 225 225 P_____________ AL091937 41.7831 -63.8065 EX 37 -4 21 62
1937269N23281 1937 50 NA NA NOT_NAMED 1937-09-29 18:00:00 ET 42.3000 -62.5000 35 hurdat_atl main 249 245 O_____________ hurdat_atl AL091937 42.3000 -62.5000 EX 35 -4 23 63
1937269N23281 1937 50 NA NA NOT_NAMED 1937-09-29 21:00:00 ET 42.8396 -61.0331 main 252 223 P_____________ AL091937 42.8396 -61.0331 EX 35 -4 25 61
1937269N23281 1937 50 NA NA NOT_NAMED 1937-09-30 00:00:00 ET 43.5000 -59.5000 35 hurdat_atl main 227 224 O_____________ hurdat_atl AL091937 43.5000 -59.5000 EX 35 -4 26 56
1937269N23281 1937 50 NA NA NOT_NAMED 1937-09-30 03:00:00 ET 44.3218 -58.0316 main 234 190 P_____________ AL091937 44.3218 -58.0316 EX 35 -4 28 50
1937269N23281 1937 50 NA NA NOT_NAMED 1937-09-30 06:00:00 ET 45.3000 -56.5000 35 hurdat_atl main 177 73 O_____________ hurdat_atl AL091937 45.3000 -56.5000 EX 35 -4 31 48
1937269N23281 1937 50 NA NA NOT_NAMED 1937-09-30 09:00:00 ET 46.3854 -54.7584 main 63 0 P_____________ AL091937 46.3854 -54.7584 EX 37 -4 33 48
1937269N23281 1937 50 NA NA NOT_NAMED 1937-09-30 12:00:00 ET 47.5000 -53.0000 40 hurdat_atl main 7 0 O_____________ hurdat_atl AL091937 47.5000 -53.0000 EX 40 -4 31 47
1937269N23281 1937 50 NA NA NOT_NAMED 1937-09-30 15:00:00 ET 48.5503 -51.3789 main 116 116 P_____________ AL091937 48.5503 -51.3789 EX 42 -4 29 46
1937269N23281 1937 50 NA NA NOT_NAMED 1937-09-30 18:00:00 ET 49.5000 -49.9000 45 hurdat_atl main 250 250 O_____________ hurdat_atl AL091937 49.5000 -49.9000 EX 45 -4 25 46
1937269N23281 1937 50 NA NA NOT_NAMED 1937-09-30 21:00:00 ET 50.3145 -48.5560 main 367 367 P_____________ AL091937 50.3145 -48.5560 EX 47 -4 22 48
1937269N23281 1937 50 NA NA NOT_NAMED 1937-10-01 00:00:00 ET 51.0000 -47.3000 50 hurdat_atl main 478 478 O_____________ hurdat_atl AL091937 51.0000 -47.3000 EX 50 -4 20 51
1937269N23281 1937 50 NA NA NOT_NAMED 1937-10-01 03:00:00 ET 51.5769 -46.0376 main 586 586 P_____________ AL091937 51.5769 -46.0376 EX 52 -4 19 56
1937269N23281 1937 50 NA NA NOT_NAMED 1937-10-01 06:00:00 ET 52.1000 -44.7000 55 hurdat_atl main 689 689 O_____________ hurdat_atl AL091937 52.1000 -44.7000 EX 55 -4 21 60
1937269N23281 1937 50 NA NA NOT_NAMED 1937-10-01 09:00:00 ET 52.6527 -43.0562 main 813 769 P_____________ AL091937 52.6527 -43.0562 EX 57 -4 22 60
1937269N23281 1937 50 NA NA NOT_NAMED 1937-10-01 12:00:00 ET 53.2000 -41.5000 60 hurdat_atl main 770 724 O_____________ hurdat_atl AL091937 53.2000 -41.5000 EX 60 -4 19 55
1937269N23281 1937 50 NA NA NOT_NAMED 1937-10-01 15:00:00 ET 53.7463 -40.4041 main 727 675 P_____________ AL091937 53.7463 -40.4041 EX 62 -4 16 47
1937269N23281 1937 50 NA NA NOT_NAMED 1937-10-01 18:00:00 ET 54.3000 -39.5000 65 hurdat_atl main 677 647 O_____________ hurdat_atl AL091937 54.3000 -39.5000 EX 65 -4 16 48
1937269N23281 1937 50 NA NA NOT_NAMED 1937-10-01 21:00:00 ET 54.7982 -38.4229 main 649 615 P_____________ AL091937 54.7982 -38.4229 EX 65 -4 16 46
1937269N23281 1937 50 NA NA NOT_NAMED 1937-10-02 00:00:00 ET 55.4000 -37.5000 65 hurdat_atl main 615 562 O_____________ hurdat_atl AL091937 55.4000 -37.5000 EX 65 -4 17 31
1937269N23281 1937 50 NA NA NOT_NAMED 1937-10-02 03:00:00 ET 56.2461 -36.9140 main 562 504 P_____________ AL091937 56.2461 -36.9140 EX 62 -4 19 17
1937269N23281 1937 50 NA NA NOT_NAMED 1937-10-02 06:00:00 ET 57.2000 -36.5000 60 hurdat_atl main 496 454 O_____________ hurdat_atl AL091937 57.2000 -36.5000 EX 60 -4 20 14
1937269N23281 1937 50 NA NA NOT_NAMED 1937-10-02 09:00:00 ET 58.1448 -36.0344 main 459 435 P_____________ AL091937 58.1448 -36.0344 EX 57 -4 19 15
1937269N23281 1937 50 NA NA NOT_NAMED 1937-10-02 12:00:00 ET 59.0000 -35.6000 55 hurdat_atl main 436 431 O_____________ hurdat_atl AL091937 59.0000 -35.6000 EX 55 -4 16 16
1937269N23281 1937 50 NA NA NOT_NAMED 1937-10-02 15:00:00 ET 59.7050 -35.1400 main 436 428 P_____________ AL091937 59.7050 -35.1400 EX 52 -4 13 19
1937269N23281 1937 50 NA NA NOT_NAMED 1937-10-02 18:00:00 ET 60.2000 -34.8000 50 hurdat_atl main 429 421 O_____________ hurdat_atl AL091937 60.2000 -34.8000 EX 50 -4 8 17
1937269N23281 1937 50 NA NA NOT_NAMED 1937-10-02 21:00:00 ET 60.4649 -34.6815 main 421 417 P_____________ AL091937 60.4649 -34.6815 EX 50 -4 4 8
1937269N23281 1937 50 NA NA NOT_NAMED 1937-10-03 00:00:00 ET 60.6000 -34.7000 50 hurdat_atl main 417 O_____________ hurdat_atl AL091937 60.6000 -34.7000 EX 50 -4 3 350

IBTrACS Databaseについて

本データベースは、米国NOAAが公開する1842年以降の世界の熱帯低気圧のベストトラックデータアーカイブInternational Best Track Archive for Climate Stewardship (IBTrACS)を、ウェブで閲覧しやすい形式に変換したものです。

最終更新日:2021-11-26